Back to Top

Language: 

My Weather Underground Personal Weather Station Historical Data with Graphs...

Delerius Weather Station Historical Data
Daily Summary for November 16, 2017 Units:  English    Metric   Both
« Previous Day
Next Day »
Daily Weekly Monthly Yearly Custom
  High: Low: Average:
Temperature: 51.6 °F 37.6 °F 46.4 °F
Dew Point: 48.2 °F 34.3 °F 41.9 °F
Humidity: 94 % 68 % 85 %
Wind Speed: 16.0 mph 0.0 mph 5.9 mph
Wind Gust: 24.0 mph - -
Wind:- - West
Pressure: 30.36 in 30.03 in -
Precipitation: 0.00 in    
Historical Graphs
 
 
Tabular Data for November 16, 2017
Time Temperature Dew Point Pressure Wind Wind Speed Wind Gust Humidity Rainfall Rate (Hourly) solar Conditions
00:01 48.2 °F 46.3 °F 30.13 in Calm   4.0 mph 93 % 0.00 in 0 W/m2
00:06 48.2 °F 46.3 °F 30.12 in SSW 2.0 mph 7.0 mph 93 % 0.00 in 0 W/m2
00:11 48.2 °F 46.6 °F 30.12 in SW 4.0 mph 6.0 mph 94 % 0.00 in 0 W/m2
00:16 48.4 °F 46.7 °F 30.12 in SW 4.0 mph 7.0 mph 94 % 0.00 in 0 W/m2
00:21 48.6 °F 46.9 °F 30.11 in SW 5.0 mph 7.0 mph 94 % 0.00 in 0 W/m2
00:26 48.7 °F 46.8 °F 30.11 in SW 8.0 mph 11.0 mph 93 % 0.00 in 0 W/m2
00:31 49.1 °F 47.2 °F 30.10 in SW 7.0 mph 9.0 mph 93 % 0.00 in 0 W/m2
00:36 49.3 °F 47.1 °F 30.10 in SW 8.0 mph 11.0 mph 92 % 0.00 in 0 W/m2
00:41 49.5 °F 46.9 °F 30.10 in SW 7.0 mph 12.0 mph 91 % 0.00 in 0 W/m2
00:46 49.5 °F 46.9 °F 30.10 in SSW 5.0 mph 7.0 mph 91 % 0.00 in 0 W/m2
00:51 49.5 °F 46.9 °F 30.10 in SSW 7.0 mph 9.0 mph 91 % 0.00 in 0 W/m2
00:56 49.3 °F 46.8 °F 30.10 in SSW 6.0 mph 8.0 mph 91 % 0.00 in 0 W/m2
01:01 49.1 °F 46.6 °F 30.10 in SW 6.0 mph 8.0 mph 91 % 0.00 in 0 W/m2
01:06 48.9 °F 46.4 °F 30.09 in SSW 5.0 mph 7.0 mph 91 % 0.00 in 0 W/m2
01:11 48.7 °F 46.2 °F 30.09 in SSW 5.0 mph 8.0 mph 91 % 0.00 in 0 W/m2
01:16 48.6 °F 46.1 °F 30.09 in SW 5.0 mph 9.0 mph 91 % 0.00 in 0 W/m2
01:21 48.4 °F 46.2 °F 30.09 in SW 5.0 mph 7.0 mph 92 % 0.00 in 0 W/m2
01:26 48.2 °F 46.0 °F 30.09 in SW 6.0 mph 9.0 mph 92 % 0.00 in 0 W/m2
01:31 48.4 °F 46.2 °F 30.09 in SW 7.0 mph 11.0 mph 92 % 0.00 in 0 W/m2
01:36 48.6 °F 46.3 °F 30.09 in SSW 6.0 mph 11.0 mph 92 % 0.00 in 0 W/m2
01:41 48.7 °F 46.8 °F 30.09 in SW 5.0 mph 8.0 mph 93 % 0.00 in 0 W/m2
01:46 48.9 °F 46.7 °F 30.09 in SW 6.0 mph 8.0 mph 92 % 0.00 in 0 W/m2
01:51 49.1 °F 46.9 °F 30.08 in SSW 5.0 mph 10.0 mph 92 % 0.00 in 0 W/m2
01:56 49.1 °F 46.9 °F 30.08 in SSW 5.0 mph 8.0 mph 92 % 0.00 in 0 W/m2
02:01 49.3 °F 47.1 °F 30.08 in SSW 4.0 mph 7.0 mph 92 % 0.00 in 0 W/m2
02:06 49.3 °F 47.1 °F 30.09 in South 4.0 mph 7.0 mph 92 % 0.00 in 0 W/m2
02:11 49.3 °F 47.1 °F 30.09 in South 5.0 mph 8.0 mph 92 % 0.00 in 0 W/m2
02:16 49.3 °F 47.1 °F 30.08 in South 7.0 mph 10.0 mph 92 % 0.00 in 0 W/m2
02:21 49.5 °F 47.2 °F 30.08 in SSW 5.0 mph 8.0 mph 92 % 0.00 in 0 W/m2
02:26 49.5 °F 47.2 °F 30.08 in SSW 4.0 mph 7.0 mph 92 % 0.00 in 0 W/m2
02:31 49.5 °F 47.2 °F 30.08 in South 6.0 mph 8.0 mph 92 % 0.00 in 0 W/m2
02:46 49.5 °F 46.9 °F 30.08 in SW 3.0 mph 6.0 mph 91 % 0.00 in 0 W/m2
02:56 49.5 °F 46.9 °F 30.08 in Calm     91 % 0.00 in 0 W/m2
03:01 49.5 °F 46.9 °F 30.07 in SW 1.0 mph 3.0 mph 91 % 0.00 in 0 W/m2
03:08 49.5 °F 47.2 °F 30.07 in WSW 4.0 mph 6.0 mph 92 % 0.00 in 0 W/m2
03:13 49.5 °F 46.9 °F 30.07 in WSW 2.0 mph 5.0 mph 91 % 0.00 in 0 W/m2
03:21 49.6 °F 47.1 °F 30.07 in West 2.0 mph 7.0 mph 91 % 0.00 in 0 W/m2
03:26 49.6 °F 47.1 °F 30.06 in Calm     91 % 0.00 in 0 W/m2
03:28 49.6 °F 46.8 °F 30.06 in Calm   1.0 mph 90 % 0.00 in 0 W/m2
03:33 49.6 °F 46.8 °F 30.06 in Calm   1.0 mph 90 % 0.00 in 0 W/m2
03:38 49.5 °F 46.6 °F 30.06 in West 3.0 mph 6.0 mph 90 % 0.00 in 0 W/m2
03:43 49.3 °F 46.5 °F 30.06 in SW 1.0 mph 2.0 mph 90 % 0.00 in 0 W/m2
03:48 49.1 °F 46.3 °F 30.06 in SW 4.0 mph 7.0 mph 90 % 0.00 in 0 W/m2
03:53 49.1 °F 46.3 °F 30.06 in SW 3.0 mph 5.0 mph 90 % 0.00 in 0 W/m2
03:58 48.9 °F 45.8 °F 30.05 in West 2.0 mph 6.0 mph 89 % 0.00 in 0 W/m2
04:03 48.7 °F 45.6 °F 30.05 in West 1.0 mph 4.0 mph 89 % 0.00 in 0 W/m2
04:08 48.4 °F 45.3 °F 30.05 in West 3.0 mph 5.0 mph 89 % 0.00 in 0 W/m2
04:13 48.2 °F 45.1 °F 30.05 in WSW 5.0 mph 9.0 mph 89 % 0.00 in 0 W/m2
04:18 48.0 °F 44.9 °F 30.05 in West 6.0 mph 12.0 mph 89 % 0.00 in 0 W/m2
04:23 48.2 °F 44.8 °F 30.06 in West 7.0 mph 11.0 mph 88 % 0.00 in 0 W/m2
04:28 48.4 °F 45.0 °F 30.06 in WSW 6.0 mph 9.0 mph 88 % 0.00 in 0 W/m2
04:33 48.6 °F 44.9 °F 30.05 in WSW 4.0 mph 6.0 mph 87 % 0.00 in 0 W/m2
04:38 48.4 °F 44.7 °F 30.05 in WSW 5.0 mph 8.0 mph 87 % 0.00 in 0 W/m2
04:43 48.4 °F 44.7 °F 30.05 in SW 6.0 mph 9.0 mph 87 % 0.00 in 0 W/m2
04:48 48.6 °F 44.9 °F 30.05 in SW 6.0 mph 9.0 mph 87 % 0.00 in 0 W/m2
04:53 48.6 °F 44.6 °F 30.05 in SW 5.0 mph 9.0 mph 86 % 0.00 in 0 W/m2
04:58 48.7 °F 44.7 °F 30.05 in SW 3.0 mph 7.0 mph 86 % 0.00 in 0 W/m2
05:03 48.6 °F 44.3 °F 30.05 in SSW 2.0 mph 6.0 mph 85 % 0.00 in 0 W/m2
05:08 48.4 °F 44.1 °F 30.05 in SSW 1.0 mph 2.0 mph 85 % 0.00 in 0 W/m2
05:13 48.4 °F 44.4 °F 30.05 in SSE 3.0 mph 7.0 mph 86 % 0.00 in 0 W/m2
05:18 48.2 °F 44.2 °F 30.04 in SSE 4.0 mph 6.0 mph 86 % 0.00 in 0 W/m2
05:23 48.2 °F 44.2 °F 30.04 in SSE 2.0 mph 4.0 mph 86 % 0.00 in 0 W/m2
05:28 48.0 °F 44.0 °F 30.05 in SSE 4.0 mph 7.0 mph 86 % 0.00 in 0 W/m2
05:33 48.0 °F 44.3 °F 30.04 in SSW 4.0 mph 6.0 mph 87 % 0.00 in 0 W/m2
05:39 47.8 °F 44.2 °F 30.04 in WSW 2.0 mph 6.0 mph 87 % 0.00 in 0 W/m2
05:44 47.8 °F 44.2 °F 30.05 in WSW 4.0 mph 8.0 mph 87 % 0.00 in 0 W/m2
05:49 47.7 °F 44.0 °F 30.05 in West 5.0 mph 8.0 mph 87 % 0.00 in 0 W/m2
05:54 47.7 °F 44.0 °F 30.05 in West 3.0 mph 5.0 mph 87 % 0.00 in 0 W/m2
05:59 47.7 °F 44.0 °F 30.05 in WSW 1.0 mph 4.0 mph 87 % 0.00 in 0 W/m2
06:04 47.3 °F 43.6 °F 30.04 in SW 3.0 mph 5.0 mph 87 % 0.00 in 0 W/m2
06:09 47.1 °F 43.4 °F 30.04 in SW 3.0 mph 6.0 mph 87 % 0.00 in 0 W/m2
06:14 46.9 °F 43.6 °F 30.04 in WSW 6.0 mph 9.0 mph 88 % 0.00 in 0 W/m2
06:19 47.1 °F 44.0 °F 30.04 in SW 5.0 mph 8.0 mph 89 % 0.00 in 0 W/m2
06:24 47.3 °F 44.2 °F 30.04 in WSW 5.0 mph 10.0 mph 89 % 0.00 in 0 W/m2
06:29 47.7 °F 44.6 °F 30.04 in SW 6.0 mph 9.0 mph 89 % 0.00 in 0 W/m2
06:34 47.8 °F 44.8 °F 30.04 in SW 6.0 mph 10.0 mph 89 % 0.00 in 0 W/m2
06:39 48.0 °F 44.9 °F 30.04 in SW 5.0 mph 8.0 mph 89 % 0.00 in 0 W/m2
06:44 48.0 °F 44.6 °F 30.04 in SSW 6.0 mph 10.0 mph 88 % 0.00 in 0 W/m2
06:49 48.2 °F 44.8 °F 30.04 in SW 5.0 mph 8.0 mph 88 % 0.00 in 0 W/m2
06:54 48.4 °F 45.0 °F 30.04 in SW 3.0 mph 6.0 mph 88 % 0.00 in 0 W/m2
06:59 48.2 °F 44.8 °F 30.04 in SSW 2.0 mph 7.0 mph 88 % 0.00 in 0 W/m2
07:04 48.0 °F 44.6 °F 30.03 in SSW 2.0 mph 5.0 mph 88 % 0.00 in 0 W/m2
07:09 48.0 °F 44.9 °F 30.03 in South 4.0 mph 7.0 mph 89 % 0.00 in 0 W/m2
07:14 48.0 °F 44.9 °F 30.03 in South 5.0 mph 7.0 mph 89 % 0.00 in 0 W/m2
07:19 48.0 °F 44.9 °F 30.03 in SSE 3.0 mph 8.0 mph 89 % 0.00 in 0 W/m2
07:24 48.2 °F 45.1 °F 30.04 in SSW 5.0 mph 8.0 mph 89 % 0.00 in 7 W/m2
07:29 48.4 °F 45.0 °F 30.04 in SSW 3.0 mph 6.0 mph 88 % 0.00 in 9 W/m2
07:34 48.4 °F 45.0 °F 30.04 in SSW 3.0 mph 6.0 mph 88 % 0.00 in 11 W/m2
07:39 48.2 °F 44.8 °F 30.04 in South 5.0 mph 9.0 mph 88 % 0.00 in 11 W/m2
07:44 48.2 °F 44.8 °F 30.04 in SW 4.0 mph 6.0 mph 88 % 0.00 in 12 W/m2
07:49 48.0 °F 44.6 °F 30.04 in South 3.0 mph 6.0 mph 88 % 0.00 in 14 W/m2
07:54 48.0 °F 44.6 °F 30.04 in SW 5.0 mph 7.0 mph 88 % 0.00 in 16 W/m2
07:59 48.0 °F 44.9 °F 30.04 in SW 5.0 mph 7.0 mph 89 % 0.00 in 18 W/m2
08:04 48.0 °F 44.9 °F 30.04 in SW 6.0 mph 10.0 mph 89 % 0.00 in 16 W/m2
08:09 48.2 °F 44.8 °F 30.04 in SW 8.0 mph 13.0 mph 88 % 0.00 in 21 W/m2
08:14 48.6 °F 45.2 °F 30.04 in SW 10.0 mph 14.0 mph 88 % 0.00 in 21 W/m2
08:19 49.3 °F 45.9 °F 30.04 in WSW 10.0 mph 19.0 mph 88 % 0.00 in 23 W/m2
08:24 49.6 °F 45.9 °F 30.04 in WSW 11.0 mph 16.0 mph 87 % 0.00 in 23 W/m2
08:27 49.8 °F 46.1 °F 30.04 in WSW 12.0 mph 19.0 mph 87 % 0.00 in 23 W/m2
08:32 50.2 °F 45.8 °F 30.04 in WSW 12.0 mph 21.0 mph 85 % 0.00 in 25 W/m2
08:37 50.5 °F 46.2 °F 30.04 in WSW 16.0 mph 23.0 mph 85 % 0.00 in 35 W/m2
08:42 50.7 °F 46.1 °F 30.04 in WSW 14.0 mph 22.0 mph 84 % 0.00 in 42 W/m2
08:47 50.9 °F 46.2 °F 30.04 in WSW 11.0 mph 19.0 mph 84 % 0.00 in 40 W/m2
08:52 50.9 °F 46.6 °F 30.04 in WSW 14.0 mph 20.0 mph 85 % 0.00 in 56 W/m2
08:57 50.9 °F 46.6 °F 30.04 in WSW 11.0 mph 18.0 mph 85 % 0.00 in 79 W/m2
09:02 51.1 °F 46.7 °F 30.05 in WSW 14.0 mph 22.0 mph 85 % 0.00 in 95 W/m2
09:07 51.4 °F 47.1 °F 30.05 in WSW 14.0 mph 21.0 mph 85 % 0.00 in 116 W/m2
09:12 51.4 °F 47.1 °F 30.06 in WSW 10.0 mph 14.0 mph 85 % 0.00 in 139 W/m2
09:17 51.6 °F 47.3 °F 30.06 in WSW 12.0 mph 18.0 mph 85 % 0.00 in 90 W/m2
09:22 51.6 °F 47.3 °F 30.05 in SW 10.0 mph 14.0 mph 85 % 0.00 in 63 W/m2
09:27 51.6 °F 47.3 °F 30.06 in SW 10.0 mph 16.0 mph 85 % 0.00 in 39 W/m2
09:32 51.6 °F 47.3 °F 30.06 in SW 9.0 mph 14.0 mph 85 % 0.00 in 35 W/m2
09:37 51.4 °F 47.1 °F 30.05 in SW 8.0 mph 13.0 mph 85 % 0.00 in 39 W/m2
09:42 51.4 °F 47.1 °F 30.05 in SW 9.0 mph 18.0 mph 85 % 0.00 in 47 W/m2
09:47 51.4 °F 47.1 °F 30.05 in WSW 8.0 mph 12.0 mph 85 % 0.00 in 185 W/m2
09:52 51.4 °F 47.4 °F 30.05 in SW 7.0 mph 11.0 mph 86 % 0.00 in 90 W/m2
09:57 51.4 °F 47.4 °F 30.05 in SW 6.0 mph 12.0 mph 86 % 0.00 in 74 W/m2
10:02 51.4 °F 47.4 °F 30.05 in SW 8.0 mph 13.0 mph 86 % 0.00 in 84 W/m2
10:07 51.4 °F 47.7 °F 30.05 in WSW 7.0 mph 13.0 mph 87 % 0.00 in 97 W/m2
10:12 51.4 °F 47.7 °F 30.06 in WSW 8.0 mph 12.0 mph 87 % 0.00 in 63 W/m2
10:17 51.6 °F 47.9 °F 30.06 in WSW 9.0 mph 15.0 mph 87 % 0.00 in 37 W/m2
10:22 51.6 °F 47.9 °F 30.07 in WSW 11.0 mph 18.0 mph 87 % 0.00 in 35 W/m2
10:27 51.6 °F 48.2 °F 30.07 in WSW 10.0 mph 20.0 mph 88 % 0.00 in 42 W/m2
10:32 51.6 °F 48.2 °F 30.08 in WSW 11.0 mph 19.0 mph 88 % 0.00 in 32 W/m2
10:37 51.6 °F 48.2 °F 30.08 in WSW 9.0 mph 15.0 mph 88 % 0.00 in 18 W/m2
10:42 51.3 °F 47.8 °F 30.09 in WNW 14.0 mph 23.0 mph 88 % 0.00 in 19 W/m2
10:47 50.5 °F 46.8 °F 30.10 in WNW 10.0 mph 15.0 mph 87 % 0.00 in 28 W/m2
10:52 50.0 °F 46.6 °F 30.10 in WNW 13.0 mph 22.0 mph 88 % 0.00 in 60 W/m2
10:57 49.3 °F 45.9 °F 30.10 in WNW 12.0 mph 18.0 mph 88 % 0.00 in 98 W/m2
11:02 48.9 °F 45.8 °F 30.10 in WNW 9.0 mph 14.0 mph 89 % 0.00 in 91 W/m2
11:07 48.7 °F 45.9 °F 30.10 in WNW 8.0 mph 14.0 mph 90 % 0.00 in 111 W/m2
11:12 48.7 °F 45.9 °F 30.10 in WNW 10.0 mph 18.0 mph 90 % 0.00 in 125 W/m2
11:17 48.7 °F 45.9 °F 30.10 in WNW 9.0 mph 13.0 mph 90 % 0.00 in 97 W/m2
11:22 48.6 °F 45.8 °F 30.10 in WNW 11.0 mph 16.0 mph 90 % 0.00 in 79 W/m2
11:27 48.6 °F 45.8 °F 30.11 in WNW 10.0 mph 16.0 mph 90 % 0.00 in 33 W/m2
11:32 48.6 °F 45.5 °F 30.11 in WNW 9.0 mph 20.0 mph 89 % 0.00 in 74 W/m2
11:37 48.4 °F 45.3 °F 30.11 in WNW 11.0 mph 19.0 mph 89 % 0.00 in 60 W/m2
11:42 48.4 °F 45.3 °F 30.11 in WNW 9.0 mph 13.0 mph 89 % 0.00 in 93 W/m2
11:47 48.4 °F 45.3 °F 30.12 in WNW 13.0 mph 21.0 mph 89 % 0.00 in 111 W/m2
11:52 48.6 °F 44.9 °F 30.12 in WNW 11.0 mph 18.0 mph 87 % 0.00 in 151 W/m2
11:57 48.7 °F 44.7 °F 30.12 in WNW 12.0 mph 20.0 mph 86 % 0.00 in 151 W/m2
12:02 49.1 °F 45.1 °F 30.13 in WNW 11.0 mph 18.0 mph 86 % 0.00 in 204 W/m2
12:07 49.5 °F 44.8 °F 30.13 in WNW 11.0 mph 19.0 mph 84 % 0.00 in 338 W/m2
12:12 49.8 °F 44.9 °F 30.14 in WNW 10.0 mph 16.0 mph 83 % 0.00 in 316 W/m2
12:17 50.2 °F 44.9 °F 30.14 in WNW 10.0 mph 19.0 mph 82 % 0.00 in 413 W/m2
12:22 50.5 °F 44.6 °F 30.14 in WNW 11.0 mph 16.0 mph 80 % 0.00 in 188 W/m2
12:27 50.5 °F 44.3 °F 30.14 in WNW 10.0 mph 16.0 mph 79 % 0.00 in 285 W/m2
12:32 50.7 °F 44.4 °F 30.14 in WNW 10.0 mph 16.0 mph 79 % 0.00 in 271 W/m2
12:37 50.7 °F 44.4 °F 30.14 in WNW 9.0 mph 15.0 mph 79 % 0.00 in 134 W/m2
12:42 50.5 °F 43.6 °F 30.14 in WNW 11.0 mph 19.0 mph 77 % 0.00 in 267 W/m2
12:47 50.9 °F 44.3 °F 30.14 in WNW 12.0 mph 20.0 mph 78 % 0.00 in 418 W/m2
12:52 51.4 °F 44.5 °F 30.14 in WNW 8.0 mph 14.0 mph 77 % 0.00 in 225 W/m2
12:57 51.6 °F 44.3 °F 30.15 in WNW 12.0 mph 24.0 mph 76 % 0.00 in 274 W/m2
13:07 50.7 °F 41.7 °F 30.15 in NW 10.0 mph 18.0 mph 71 % 0.00 in 102 W/m2
13:12 50.4 °F 40.9 °F 30.15 in NW 8.0 mph 15.0 mph 70 % 0.00 in 127 W/m2
13:17 50.2 °F 41.1 °F 30.16 in WNW 7.0 mph 13.0 mph 71 % 0.00 in 84 W/m2
13:23 50.2 °F 41.5 °F 30.16 in WNW 4.0 mph 10.0 mph 72 % 0.00 in 125 W/m2
13:28 50.2 °F 41.1 °F 30.17 in WNW 8.0 mph 16.0 mph 71 % 0.00 in 153 W/m2
13:33 50.0 °F 41.0 °F 30.17 in NW 8.0 mph 14.0 mph 71 % 0.00 in 193 W/m2
13:38 50.2 °F 41.5 °F 30.17 in NW 6.0 mph 10.0 mph 72 % 0.00 in 200 W/m2
13:43 50.4 °F 41.7 °F 30.17 in NW 8.0 mph 14.0 mph 72 % 0.00 in 213 W/m2
13:48 50.5 °F 41.8 °F 30.17 in NW 9.0 mph 12.0 mph 72 % 0.00 in 250 W/m2
13:53 50.7 °F 42.0 °F 30.17 in WNW 10.0 mph 13.0 mph 72 % 0.00 in 176 W/m2
13:58 50.7 °F 41.7 °F 30.17 in WNW 8.0 mph 14.0 mph 71 % 0.00 in 218 W/m2
14:03 50.7 °F 41.7 °F 30.17 in WNW 9.0 mph 12.0 mph 71 % 0.00 in 207 W/m2
14:08 50.9 °F 41.8 °F 30.17 in WNW 8.0 mph 12.0 mph 71 % 0.00 in 200 W/m2
14:13 50.7 °F 40.5 °F 30.18 in NW 11.0 mph 19.0 mph 68 % 0.00 in 185 W/m2
14:18 50.5 °F 40.4 °F 30.18 in WNW 11.0 mph 16.0 mph 68 % 0.00 in 160 W/m2
14:23 50.2 °F 40.0 °F 30.17 in WNW 10.0 mph 18.0 mph 68 % 0.00 in 158 W/m2
14:28 50.2 °F 40.4 °F 30.17 in WNW 9.0 mph 18.0 mph 69 % 0.00 in 35 W/m2
14:33 49.6 °F 39.9 °F 30.18 in WNW 9.0 mph 13.0 mph 69 % 0.00 in 40 W/m2
14:38 49.3 °F 39.9 °F 30.18 in NW 8.0 mph 11.0 mph 70 % 0.00 in 137 W/m2
14:43 49.3 °F 39.5 °F 30.19 in WNW 8.0 mph 12.0 mph 69 % 0.00 in 134 W/m2
14:48 48.9 °F 38.8 °F 30.19 in NW 8.0 mph 14.0 mph 68 % 0.00 in 123 W/m2
14:53 48.7 °F 38.6 °F 30.20 in NW 9.0 mph 14.0 mph 68 % 0.00 in 111 W/m2
14:58 48.6 °F 38.5 °F 30.19 in WNW 10.0 mph 14.0 mph 68 % 0.00 in 98 W/m2
15:03 48.4 °F 38.7 °F 30.19 in WNW 11.0 mph 16.0 mph 69 % 0.00 in 35 W/m2
15:08 48.2 °F 38.5 °F 30.20 in WNW 9.0 mph 14.0 mph 69 % 0.00 in 30 W/m2
15:13 48.0 °F 38.3 °F 30.20 in NW 8.0 mph 15.0 mph 69 % 0.00 in 28 W/m2
15:23 47.8 °F 38.2 °F 30.20 in WNW 10.0 mph 14.0 mph 69 % 0.00 in 25 W/m2
15:28 47.7 °F 38.0 °F 30.20 in WNW 9.0 mph 15.0 mph 69 % 0.00 in 23 W/m2
15:33 47.5 °F 37.8 °F 30.20 in WNW 10.0 mph 18.0 mph 69 % 0.00 in 19 W/m2
15:38 47.3 °F 37.3 °F 30.21 in WNW 13.0 mph 19.0 mph 68 % 0.00 in 18 W/m2
15:43 47.1 °F 37.5 °F 30.22 in WNW 6.0 mph 12.0 mph 69 % 0.00 in 16 W/m2
15:48 46.9 °F 37.3 °F 30.22 in WNW 8.0 mph 10.0 mph 69 % 0.00 in 14 W/m2
15:53 46.8 °F 37.5 °F 30.22 in WNW 5.0 mph 9.0 mph 70 % 0.00 in 11 W/m2
15:58 46.6 °F 37.3 °F 30.22 in WNW 8.0 mph 11.0 mph 70 % 0.00 in 9 W/m2
16:03 46.2 °F 37.3 °F 30.23 in WNW 9.0 mph 14.0 mph 71 % 0.00 in 7 W/m2
16:08 46.0 °F 37.2 °F 30.23 in WNW 8.0 mph 14.0 mph 71 % 0.00 in 5 W/m2
16:18 45.7 °F 37.2 °F 30.24 in WNW 7.0 mph 11.0 mph 72 % 0.00 in 0 W/m2
16:23 45.5 °F 37.3 °F 30.24 in WNW 4.0 mph 7.0 mph 73 % 0.00 in 0 W/m2
16:28 45.1 °F 37.0 °F 30.24 in West 1.0 mph 4.0 mph 73 % 0.00 in 0 W/m2
16:38 44.8 °F 37.0 °F 30.25 in Calm   2.0 mph 74 % 0.00 in 0 W/m2
16:43 44.4 °F 37.0 °F 30.25 in West 1.0 mph 2.0 mph 75 % 0.00 in 0 W/m2
16:48 44.1 °F 36.6 °F 30.25 in West 3.0 mph 5.0 mph 75 % 0.00 in 0 W/m2
16:50 44.1 °F 37.0 °F 30.25 in West 3.0 mph 6.0 mph 76 % 0.00 in 0 W/m2
16:55 43.9 °F 36.8 °F 30.25 in West 2.0 mph 5.0 mph 76 % 0.00 in 0 W/m2
17:00 43.5 °F 36.8 °F 30.26 in Calm   2.0 mph 77 % 0.00 in 0 W/m2
17:05 43.2 °F 36.4 °F 30.26 in West 2.0 mph 4.0 mph 77 % 0.00 in 0 W/m2
17:20 42.3 °F 36.2 °F 30.25 in WNW 5.0 mph 7.0 mph 79 % 0.00 in 0 W/m2
17:25 41.9 °F 35.9 °F 30.25 in WNW 2.0 mph 5.0 mph 79 % 0.00 in 0 W/m2
17:30 41.5 °F 35.8 °F 30.26 in NW 1.0 mph 5.0 mph 80 % 0.00 in 0 W/m2
17:35 41.4 °F 35.7 °F 30.26 in NW 1.0 mph 5.0 mph 80 % 0.00 in 0 W/m2
17:40 41.4 °F 36.0 °F 30.27 in West 3.0 mph 7.0 mph 81 % 0.00 in 0 W/m2
17:46 41.4 °F 36.0 °F 30.26 in West 4.0 mph 7.0 mph 81 % 0.00 in 0 W/m2
17:51 41.5 °F 36.1 °F 30.26 in West 6.0 mph 9.0 mph 81 % 0.00 in 0 W/m2
17:55 41.5 °F 36.1 °F 30.26 in WNW 4.0 mph 7.0 mph 81 % 0.00 in 0 W/m2
18:00 41.4 °F 36.0 °F 30.27 in WNW 4.0 mph 6.0 mph 81 % 0.00 in 0 W/m2
18:01 41.4 °F 36.0 °F 30.27 in WNW 4.0 mph 6.0 mph 81 % 0.00 in 0 W/m2
18:06 41.2 °F 36.1 °F 30.27 in WNW 5.0 mph 8.0 mph 82 % 0.00 in 0 W/m2
18:10 41.0 °F 35.9 °F 30.27 in WNW 5.0 mph 8.0 mph 82 % 0.00 in 0 W/m2
18:15 40.8 °F 36.1 °F 30.27 in WNW 6.0 mph 8.0 mph 83 % 0.00 in 0 W/m2
18:20 40.8 °F 36.4 °F 30.27 in NW 5.0 mph 8.0 mph 84 % 0.00 in 0 W/m2
18:25 40.8 °F 36.4 °F 30.28 in NW 4.0 mph 7.0 mph 84 % 0.00 in 0 W/m2
18:30 40.8 °F 36.7 °F 30.28 in WNW 4.0 mph 7.0 mph 85 % 0.00 in 0 W/m2
18:35 40.8 °F 36.7 °F 30.28 in WNW 1.0 mph 4.0 mph 85 % 0.00 in 0 W/m2
18:40 40.8 °F 36.4 °F 30.28 in Calm   1.0 mph 84 % 0.00 in 0 W/m2
18:45 40.6 °F 36.5 °F 30.28 in NW 5.0 mph 7.0 mph 85 % 0.00 in 0 W/m2
18:50 40.6 °F 36.8 °F 30.28 in NW 8.0 mph 11.0 mph 86 % 0.00 in 0 W/m2
18:55 40.8 °F 37.0 °F 30.28 in WNW 7.0 mph 14.0 mph 86 % 0.00 in 0 W/m2
19:00 41.2 °F 37.0 °F 30.29 in WNW 8.0 mph 12.0 mph 85 % 0.00 in 0 W/m2
19:05 41.4 °F 37.2 °F 30.29 in WNW 5.0 mph 9.0 mph 85 % 0.00 in 0 W/m2
19:10 41.4 °F 36.9 °F 30.30 in WNW 6.0 mph 8.0 mph 84 % 0.00 in 0 W/m2
19:15 41.4 °F 36.9 °F 30.30 in WNW 6.0 mph 9.0 mph 84 % 0.00 in 0 W/m2
19:20 41.2 °F 36.7 °F 30.29 in NW 7.0 mph 11.0 mph 84 % 0.00 in 0 W/m2
19:25 41.2 °F 36.7 °F 30.30 in WNW 8.0 mph 11.0 mph 84 % 0.00 in 0 W/m2
19:30 41.4 °F 36.9 °F 30.30 in WNW 6.0 mph 9.0 mph 84 % 0.00 in 0 W/m2
19:35 41.4 °F 36.9 °F 30.30 in WNW 7.0 mph 11.0 mph 84 % 0.00 in 0 W/m2
19:40 41.4 °F 36.9 °F 30.30 in WNW 7.0 mph 10.0 mph 84 % 0.00 in 0 W/m2
19:45 41.4 °F 36.9 °F 30.30 in WNW 6.0 mph 11.0 mph 84 % 0.00 in 0 W/m2
19:50 41.2 °F 36.7 °F 30.30 in WNW 7.0 mph 11.0 mph 84 % 0.00 in 0 W/m2
19:55 41.2 °F 36.7 °F 30.30 in WNW 7.0 mph 13.0 mph 84 % 0.00 in 0 W/m2
20:00 41.2 °F 36.7 °F 30.31 in WNW 4.0 mph 9.0 mph 84 % 0.00 in 0 W/m2
20:05 41.2 °F 36.7 °F 30.31 in Calm   2.0 mph 84 % 0.00 in 0 W/m2
20:10 40.8 °F 36.4 °F 30.31 in Calm   1.0 mph 84 % 0.00 in 0 W/m2
20:15 40.6 °F 36.2 °F 30.31 in WNW 4.0 mph 7.0 mph 84 % 0.00 in 0 W/m2
20:20 40.6 °F 36.5 °F 30.31 in WNW 3.0 mph 5.0 mph 85 % 0.00 in 0 W/m2
20:25 40.5 °F 36.0 °F 30.31 in Calm   2.0 mph 84 % 0.00 in 0 W/m2
20:30 40.1 °F 35.7 °F 30.31 in WNW 1.0 mph 3.0 mph 84 % 0.00 in 0 W/m2
20:35 39.7 °F 35.3 °F 30.31 in Calm     84 % 0.00 in 0 W/m2
20:40 39.6 °F 35.4 °F 30.32 in Calm   1.0 mph 85 % 0.00 in 0 W/m2
20:45 39.2 °F 35.1 °F 30.32 in Calm     85 % 0.00 in 0 W/m2
20:50 38.8 °F 34.7 °F 30.32 in Calm   3.0 mph 85 % 0.00 in 0 W/m2
20:55 38.7 °F 34.8 °F 30.32 in WNW 3.0 mph 5.0 mph 86 % 0.00 in 0 W/m2
21:00 38.5 °F 34.9 °F 30.32 in WNW 1.0 mph 2.0 mph 87 % 0.00 in 0 W/m2
21:05 38.3 °F 34.8 °F 30.32 in WNW 1.0 mph 3.0 mph 87 % 0.00 in 0 W/m2
21:10 38.1 °F 34.6 °F 30.32 in Calm     87 % 0.00 in 0 W/m2
21:15 37.9 °F 34.7 °F 30.32 in WNW 1.0 mph 2.0 mph 88 % 0.00 in 0 W/m2
21:20 37.8 °F 34.5 °F 30.33 in WNW 3.0 mph 4.0 mph 88 % 0.00 in 0 W/m2
21:25 37.8 °F 34.5 °F 30.33 in WNW 3.0 mph 5.0 mph 88 % 0.00 in 0 W/m2
21:30 37.6 °F 34.3 °F 30.33 in WNW 4.0 mph 5.0 mph 88 % 0.00 in 0 W/m2
21:35 37.6 °F 34.6 °F 30.33 in WNW 5.0 mph 7.0 mph 89 % 0.00 in 0 W/m2
21:40 37.6 °F 34.6 °F 30.33 in WNW 4.0 mph 6.0 mph 89 % 0.00 in 0 W/m2
21:42 37.6 °F 34.6 °F 30.33 in WNW 4.0 mph 5.0 mph 89 % 0.00 in 0 W/m2
21:47 37.8 °F 35.1 °F 30.33 in WNW 5.0 mph 6.0 mph 90 % 0.00 in 0 W/m2
21:52 37.9 °F 35.3 °F 30.33 in NW 4.0 mph 5.0 mph 90 % 0.00 in 0 W/m2
21:57 37.9 °F 35.3 °F 30.33 in NW 5.0 mph 8.0 mph 90 % 0.00 in 0 W/m2
22:02 38.1 °F 35.4 °F 30.34 in WNW 5.0 mph 8.0 mph 90 % 0.00 in 0 W/m2
22:07 38.5 °F 35.8 °F 30.34 in WNW 6.0 mph 9.0 mph 90 % 0.00 in 0 W/m2
22:12 38.7 °F 35.7 °F 30.34 in WNW 6.0 mph 8.0 mph 89 % 0.00 in 0 W/m2
22:17 38.7 °F 35.7 °F 30.34 in NW 6.0 mph 9.0 mph 89 % 0.00 in 0 W/m2
22:22 39.0 °F 36.1 °F 30.34 in WNW 6.0 mph 7.0 mph 89 % 0.00 in 0 W/m2
22:27 39.0 °F 36.1 °F 30.34 in WNW 4.0 mph 6.0 mph 89 % 0.00 in 0 W/m2
22:32 39.2 °F 36.2 °F 30.34 in West 3.0 mph 5.0 mph 89 % 0.00 in 0 W/m2
22:37 39.2 °F 35.9 °F 30.34 in Calm     88 % 0.00 in 0 W/m2
22:42 38.8 °F 35.3 °F 30.35 in NW 5.0 mph 8.0 mph 87 % 0.00 in 0 W/m2
22:47 38.8 °F 35.6 °F 30.35 in WNW 6.0 mph 7.0 mph 88 % 0.00 in 0 W/m2
22:52 39.0 °F 36.1 °F 30.35 in West 5.0 mph 8.0 mph 89 % 0.00 in 0 W/m2
22:57 39.2 °F 36.2 °F 30.35 in WNW 6.0 mph 8.0 mph 89 % 0.00 in 0 W/m2
23:02 39.4 °F 36.4 °F 30.35 in NW 6.0 mph 9.0 mph 89 % 0.00 in 0 W/m2
23:07 39.6 °F 36.6 °F 30.36 in NW 5.0 mph 8.0 mph 89 % 0.00 in 0 W/m2
23:12 39.7 °F 36.5 °F 30.35 in NW 3.0 mph 5.0 mph 88 % 0.00 in 0 W/m2
23:17 39.9 °F 36.9 °F 30.36 in WNW 2.0 mph 5.0 mph 89 % 0.00 in 0 W/m2
23:22 39.7 °F 36.5 °F 30.35 in Calm   1.0 mph 88 % 0.00 in 0 W/m2
23:37 39.6 °F 36.3 °F 30.36 in NW 3.0 mph 5.0 mph 88 % 0.00 in 0 W/m2
23:42 39.9 °F 36.9 °F 30.36 in NW 5.0 mph 7.0 mph 89 % 0.00 in 0 W/m2
23:47 40.3 °F 37.6 °F 30.36 in NW 4.0 mph 6.0 mph 90 % 0.00 in 0 W/m2
23:57 40.6 °F 37.7 °F 30.36 in WNW 3.0 mph 5.0 mph 89 % 0.00 in 0 W/m2
Delerius-Weather
Compliments of Weather Underground - 2.25 mb

Data updates at regular intervals.